sensor_id;sensor_type;location;lat;lon;timestamp;temperature;humidity
34644;DHT22;26931;43.498;-1.506;2023-02-17T00:02:18;9.20;95.70
34644;DHT22;26931;43.498;-1.506;2023-02-17T00:04:43;9.20;95.60
34644;DHT22;26931;43.498;-1.506;2023-02-17T00:07:09;9.20;95.60
34644;DHT22;26931;43.498;-1.506;2023-02-17T00:09:35;9.20;95.50
34644;DHT22;26931;43.498;-1.506;2023-02-17T00:12:01;9.20;95.50
34644;DHT22;26931;43.498;-1.506;2023-02-17T00:14:26;9.10;95.40
34644;DHT22;26931;43.498;-1.506;2023-02-17T00:16:52;9.00;95.30
34644;DHT22;26931;43.498;-1.506;2023-02-17T00:19:18;8.90;95.40
34644;DHT22;26931;43.498;-1.506;2023-02-17T00:21:53;8.90;95.50
34644;DHT22;26931;43.498;-1.506;2023-02-17T00:24:20;8.90;95.50
34644;DHT22;26931;43.498;-1.506;2023-02-17T00:26:46;8.80;95.40
34644;DHT22;26931;43.498;-1.506;2023-02-17T00:29:12;8.60;95.30
34644;DHT22;26931;43.498;-1.506;2023-02-17T00:31:38;8.70;95.40
34644;DHT22;26931;43.498;-1.506;2023-02-17T00:34:04;8.70;95.40
34644;DHT22;26931;43.498;-1.506;2023-02-17T00:36:29;8.70;95.30
34644;DHT22;26931;43.498;-1.506;2023-02-17T00:38:55;8.70;95.30
34644;DHT22;26931;43.498;-1.506;2023-02-17T00:41:22;8.60;95.30
34644;DHT22;26931;43.498;-1.506;2023-02-17T00:43:48;8.60;95.30
34644;DHT22;26931;43.498;-1.506;2023-02-17T00:46:14;8.60;95.40
34644;DHT22;26931;43.498;-1.506;2023-02-17T00:48:40;8.70;95.50
34644;DHT22;26931;43.498;-1.506;2023-02-17T00:51:06;8.60;95.40
34644;DHT22;26931;43.498;-1.506;2023-02-17T00:53:31;8.60;95.40
34644;DHT22;26931;43.498;-1.506;2023-02-17T00:55:57;8.60;95.30
34644;DHT22;26931;43.498;-1.506;2023-02-17T00:58:23;8.70;95.40
34644;DHT22;26931;43.498;-1.506;2023-02-17T01:00:49;8.70;95.30
34644;DHT22;26931;43.498;-1.506;2023-02-17T01:03:16;8.60;95.30
34644;DHT22;26931;43.498;-1.506;2023-02-17T01:05:42;8.60;95.30
34644;DHT22;26931;43.498;-1.506;2023-02-17T01:08:08;8.60;95.30
34644;DHT22;26931;43.498;-1.506;2023-02-17T01:10:38;8.50;95.30
34644;DHT22;26931;43.498;-1.506;2023-02-17T01:13:04;8.70;95.60
34644;DHT22;26931;43.498;-1.506;2023-02-17T01:15:30;8.60;95.20
34644;DHT22;26931;43.498;-1.506;2023-02-17T01:17:57;8.60;95.20
34644;DHT22;26931;43.498;-1.506;2023-02-17T01:20:23;8.60;95.10
34644;DHT22;26931;43.498;-1.506;2023-02-17T01:22:49;8.60;95.00
34644;DHT22;26931;43.498;-1.506;2023-02-17T01:25:14;8.60;95.00
34644;DHT22;26931;43.498;-1.506;2023-02-17T01:27:40;8.50;94.90
34644;DHT22;26931;43.498;-1.506;2023-02-17T01:30:06;8.50;94.90
34644;DHT22;26931;43.498;-1.506;2023-02-17T01:32:32;8.50;94.90
34644;DHT22;26931;43.498;-1.506;2023-02-17T01:34:58;8.60;94.90
34644;DHT22;26931;43.498;-1.506;2023-02-17T01:37:23;8.40;94.80
34644;DHT22;26931;43.498;-1.506;2023-02-17T01:39:49;8.30;94.70
34644;DHT22;26931;43.498;-1.506;2023-02-17T01:42:15;8.20;94.90
34644;DHT22;26931;43.498;-1.506;2023-02-17T01:47:26;8.20;95.00
34644;DHT22;26931;43.498;-1.506;2023-02-17T01:49:52;8.30;95.10
34644;DHT22;26931;43.498;-1.506;2023-02-17T01:52:20;8.20;95.00
34644;DHT22;26931;43.498;-1.506;2023-02-17T01:54:58;8.20;95.00
34644;DHT22;26931;43.498;-1.506;2023-02-17T01:57:26;8.20;95.00
34644;DHT22;26931;43.498;-1.506;2023-02-17T01:59:53;8.30;95.00
34644;DHT22;26931;43.498;-1.506;2023-02-17T02:02:20;8.20;94.90
34644;DHT22;26931;43.498;-1.506;2023-02-17T02:04:47;8.20;94.80
34644;DHT22;26931;43.498;-1.506;2023-02-17T02:07:16;8.10;94.80
34644;DHT22;26931;43.498;-1.506;2023-02-17T02:09:47;8.10;94.90
34644;DHT22;26931;43.498;-1.506;2023-02-17T02:12:16;8.20;94.90
34644;DHT22;26931;43.498;-1.506;2023-02-17T02:14:42;8.30;94.90
34644;DHT22;26931;43.498;-1.506;2023-02-17T02:17:13;8.20;94.90
34644;DHT22;26931;43.498;-1.506;2023-02-17T02:22:54;8.10;94.80
34644;DHT22;26931;43.498;-1.506;2023-02-17T02:33:20;7.80;95.00
34644;DHT22;26931;43.498;-1.506;2023-02-17T02:38:21;7.90;95.10
34644;DHT22;26931;43.498;-1.506;2023-02-17T02:40:49;7.90;95.20
34644;DHT22;26931;43.498;-1.506;2023-02-17T02:43:17;7.90;95.10
34644;DHT22;26931;43.498;-1.506;2023-02-17T02:45:43;7.90;95.10
34644;DHT22;26931;43.498;-1.506;2023-02-17T02:48:09;8.00;95.20
34644;DHT22;26931;43.498;-1.506;2023-02-17T02:53:09;8.20;95.20
34644;DHT22;26931;43.498;-1.506;2023-02-17T02:55:42;8.00;95.10
34644;DHT22;26931;43.498;-1.506;2023-02-17T02:58:21;7.80;95.10
34644;DHT22;26931;43.498;-1.506;2023-02-17T03:00:53;7.70;95.10
34644;DHT22;26931;43.498;-1.506;2023-02-17T03:08:42;7.50;95.50
34644;DHT22;26931;43.498;-1.506;2023-02-17T03:11:08;7.40;95.50
34644;DHT22;26931;43.498;-1.506;2023-02-17T03:13:34;7.30;95.60
34644;DHT22;26931;43.498;-1.506;2023-02-17T03:16:04;7.50;95.60
34644;DHT22;26931;43.498;-1.506;2023-02-17T03:18:34;7.60;95.50
34644;DHT22;26931;43.498;-1.506;2023-02-17T03:21:07;7.50;95.40
34644;DHT22;26931;43.498;-1.506;2023-02-17T03:23:34;7.50;95.30
34644;DHT22;26931;43.498;-1.506;2023-02-17T03:26:00;7.30;95.30
34644;DHT22;26931;43.498;-1.506;2023-02-17T03:28:25;7.50;95.40
34644;DHT22;26931;43.498;-1.506;2023-02-17T03:30:51;7.50;95.30
34644;DHT22;26931;43.498;-1.506;2023-02-17T03:33:17;7.40;95.20
34644;DHT22;26931;43.498;-1.506;2023-02-17T03:35:43;7.40;95.20
34644;DHT22;26931;43.498;-1.506;2023-02-17T03:38:09;7.40;95.40
34644;DHT22;26931;43.498;-1.506;2023-02-17T03:40:34;7.50;95.40
34644;DHT22;26931;43.498;-1.506;2023-02-17T03:43:00;7.60;95.40
34644;DHT22;26931;43.498;-1.506;2023-02-17T03:45:26;7.40;95.30
34644;DHT22;26931;43.498;-1.506;2023-02-17T03:47:52;7.40;95.40
34644;DHT22;26931;43.498;-1.506;2023-02-17T03:50:18;7.40;95.40
34644;DHT22;26931;43.498;-1.506;2023-02-17T03:52:44;7.40;95.50
34644;DHT22;26931;43.498;-1.506;2023-02-17T03:55:09;7.40;95.30
34644;DHT22;26931;43.498;-1.506;2023-02-17T03:57:35;7.50;95.30
34644;DHT22;26931;43.498;-1.506;2023-02-17T04:00:01;7.50;95.30
34644;DHT22;26931;43.498;-1.506;2023-02-17T04:02:28;7.50;95.30
34644;DHT22;26931;43.498;-1.506;2023-02-17T04:04:54;7.60;95.30
34644;DHT22;26931;43.498;-1.506;2023-02-17T04:07:20;7.50;95.20
34644;DHT22;26931;43.498;-1.506;2023-02-17T04:09:45;7.50;95.30
34644;DHT22;26931;43.498;-1.506;2023-02-17T04:12:11;7.50;95.30
34644;DHT22;26931;43.498;-1.506;2023-02-17T04:14:37;7.50;95.30
34644;DHT22;26931;43.498;-1.506;2023-02-17T04:17:03;7.70;95.40
34644;DHT22;26931;43.498;-1.506;2023-02-17T04:19:29;7.50;95.50
34644;DHT22;26931;43.498;-1.506;2023-02-17T04:21:54;7.40;95.50
34644;DHT22;26931;43.498;-1.506;2023-02-17T04:24:20;7.50;95.50
34644;DHT22;26931;43.498;-1.506;2023-02-17T04:26:46;7.40;95.40
34644;DHT22;26931;43.498;-1.506;2023-02-17T04:29:12;7.50;95.50
34644;DHT22;26931;43.498;-1.506;2023-02-17T04:31:38;7.30;95.40
34644;DHT22;26931;43.498;-1.506;2023-02-17T04:34:04;7.30;95.50
34644;DHT22;26931;43.498;-1.506;2023-02-17T04:36:29;7.40;95.50
34644;DHT22;26931;43.498;-1.506;2023-02-17T04:38:55;7.40;95.40
34644;DHT22;26931;43.498;-1.506;2023-02-17T04:41:21;7.40;95.30
34644;DHT22;26931;43.498;-1.506;2023-02-17T04:43:47;7.40;95.30
34644;DHT22;26931;43.498;-1.506;2023-02-17T04:46:12;7.50;95.20
34644;DHT22;26931;43.498;-1.506;2023-02-17T04:48:38;7.40;95.00
34644;DHT22;26931;43.498;-1.506;2023-02-17T04:51:04;7.40;95.00
34644;DHT22;26931;43.498;-1.506;2023-02-17T04:53:30;7.30;95.00
34644;DHT22;26931;43.498;-1.506;2023-02-17T04:55:55;7.20;95.00
34644;DHT22;26931;43.498;-1.506;2023-02-17T04:58:21;7.10;95.20
34644;DHT22;26931;43.498;-1.506;2023-02-17T05:00:48;7.10;95.30
34644;DHT22;26931;43.498;-1.506;2023-02-17T05:03:14;7.20;95.40
34644;DHT22;26931;43.498;-1.506;2023-02-17T05:05:40;7.00;95.40
34644;DHT22;26931;43.498;-1.506;2023-02-17T05:08:05;6.90;95.40
34644;DHT22;26931;43.498;-1.506;2023-02-17T05:10:31;6.90;95.50
34644;DHT22;26931;43.498;-1.506;2023-02-17T05:12:57;7.10;95.60
34644;DHT22;26931;43.498;-1.506;2023-02-17T05:15:23;7.00;95.50
34644;DHT22;26931;43.498;-1.506;2023-02-17T05:17:48;7.00;95.40
34644;DHT22;26931;43.498;-1.506;2023-02-17T05:20:14;7.00;95.30
34644;DHT22;26931;43.498;-1.506;2023-02-17T05:22:40;6.90;95.30
34644;DHT22;26931;43.498;-1.506;2023-02-17T05:25:06;7.00;95.40
34644;DHT22;26931;43.498;-1.506;2023-02-17T05:27:32;6.90;95.30
34644;DHT22;26931;43.498;-1.506;2023-02-17T05:29:57;6.90;95.40
34644;DHT22;26931;43.498;-1.506;2023-02-17T05:32:23;6.90;95.20
34644;DHT22;26931;43.498;-1.506;2023-02-17T05:34:49;6.80;95.20
34644;DHT22;26931;43.498;-1.506;2023-02-17T05:37:15;6.90;95.50
34644;DHT22;26931;43.498;-1.506;2023-02-17T05:39:41;7.00;95.50
34644;DHT22;26931;43.498;-1.506;2023-02-17T05:42:06;6.90;95.40
34644;DHT22;26931;43.498;-1.506;2023-02-17T05:44:32;6.90;95.30
34644;DHT22;26931;43.498;-1.506;2023-02-17T05:46:58;6.90;95.20
34644;DHT22;26931;43.498;-1.506;2023-02-17T05:49:24;6.80;95.10
34644;DHT22;26931;43.498;-1.506;2023-02-17T05:51:50;6.80;95.30
34644;DHT22;26931;43.498;-1.506;2023-02-17T05:54:16;6.70;95.50
34644;DHT22;26931;43.498;-1.506;2023-02-17T05:56:41;6.70;95.30
34644;DHT22;26931;43.498;-1.506;2023-02-17T05:59:07;6.80;95.30
34644;DHT22;26931;43.498;-1.506;2023-02-17T06:01:33;6.70;95.20
34644;DHT22;26931;43.498;-1.506;2023-02-17T06:03:59;6.50;95.30
34644;DHT22;26931;43.498;-1.506;2023-02-17T06:06:25;6.70;95.30
34644;DHT22;26931;43.498;-1.506;2023-02-17T06:08:51;6.70;95.30
34644;DHT22;26931;43.498;-1.506;2023-02-17T06:11:16;6.70;95.10
34644;DHT22;26931;43.498;-1.506;2023-02-17T06:13:42;6.70;95.20
34644;DHT22;26931;43.498;-1.506;2023-02-17T06:16:08;6.70;95.20
34644;DHT22;26931;43.498;-1.506;2023-02-17T06:18:34;6.70;95.10
34644;DHT22;26931;43.498;-1.506;2023-02-17T06:21:00;6.70;95.10
34644;DHT22;26931;43.498;-1.506;2023-02-17T06:23:26;6.70;95.20
34644;DHT22;26931;43.498;-1.506;2023-02-17T06:25:52;6.60;95.20
34644;DHT22;26931;43.498;-1.506;2023-02-17T06:28:18;6.70;95.10
34644;DHT22;26931;43.498;-1.506;2023-02-17T06:30:44;6.80;95.10
34644;DHT22;26931;43.498;-1.506;2023-02-17T06:33:09;6.60;95.00
34644;DHT22;26931;43.498;-1.506;2023-02-17T06:35:35;6.90;95.00
34644;DHT22;26931;43.498;-1.506;2023-02-17T06:38:01;6.80;95.00
34644;DHT22;26931;43.498;-1.506;2023-02-17T06:40:27;6.80;95.00
34644;DHT22;26931;43.498;-1.506;2023-02-17T06:42:53;6.70;94.90
34644;DHT22;26931;43.498;-1.506;2023-02-17T06:45:18;6.80;95.00
34644;DHT22;26931;43.498;-1.506;2023-02-17T06:47:44;6.70;95.00
34644;DHT22;26931;43.498;-1.506;2023-02-17T06:50:10;6.80;94.90
34644;DHT22;26931;43.498;-1.506;2023-02-17T06:52:36;6.70;95.00
34644;DHT22;26931;43.498;-1.506;2023-02-17T06:55:02;6.70;95.20
34644;DHT22;26931;43.498;-1.506;2023-02-17T06:57:28;6.70;95.00
34644;DHT22;26931;43.498;-1.506;2023-02-17T06:59:54;6.70;95.00
34644;DHT22;26931;43.498;-1.506;2023-02-17T07:02:20;6.60;95.00
34644;DHT22;26931;43.498;-1.506;2023-02-17T07:04:46;6.70;95.40
34644;DHT22;26931;43.498;-1.506;2023-02-17T07:07:11;6.70;95.00
34644;DHT22;26931;43.498;-1.506;2023-02-17T07:09:38;6.60;94.90
34644;DHT22;26931;43.498;-1.506;2023-02-17T07:12:04;7.00;95.00
34644;DHT22;26931;43.498;-1.506;2023-02-17T07:14:31;7.00;94.90
34644;DHT22;26931;43.498;-1.506;2023-02-17T07:16:57;6.70;94.80
34644;DHT22;26931;43.498;-1.506;2023-02-17T07:19:23;6.70;94.90
34644;DHT22;26931;43.498;-1.506;2023-02-17T07:21:49;6.70;95.00
34644;DHT22;26931;43.498;-1.506;2023-02-17T07:24:14;6.70;95.00
34644;DHT22;26931;43.498;-1.506;2023-02-17T07:26:40;6.70;95.00
34644;DHT22;26931;43.498;-1.506;2023-02-17T07:29:06;6.60;94.90
34644;DHT22;26931;43.498;-1.506;2023-02-17T07:31:32;6.70;95.00
34644;DHT22;26931;43.498;-1.506;2023-02-17T07:33:59;6.70;95.00
34644;DHT22;26931;43.498;-1.506;2023-02-17T07:36:25;6.70;94.90
34644;DHT22;26931;43.498;-1.506;2023-02-17T07:38:50;6.80;94.90
34644;DHT22;26931;43.498;-1.506;2023-02-17T07:41:17;6.70;94.90
34644;DHT22;26931;43.498;-1.506;2023-02-17T07:43:44;6.70;95.00
34644;DHT22;26931;43.498;-1.506;2023-02-17T07:46:10;6.70;95.00
34644;DHT22;26931;43.498;-1.506;2023-02-17T07:48:36;6.70;95.00
34644;DHT22;26931;43.498;-1.506;2023-02-17T07:51:12;6.70;94.80
34644;DHT22;26931;43.498;-1.506;2023-02-17T07:53:38;6.70;94.90
34644;DHT22;26931;43.498;-1.506;2023-02-17T07:56:04;6.80;95.00
34644;DHT22;26931;43.498;-1.506;2023-02-17T07:58:31;6.80;95.00
34644;DHT22;26931;43.498;-1.506;2023-02-17T08:00:57;6.80;94.90
34644;DHT22;26931;43.498;-1.506;2023-02-17T08:03:22;6.90;94.90
34644;DHT22;26931;43.498;-1.506;2023-02-17T08:05:48;6.90;94.90
34644;DHT22;26931;43.498;-1.506;2023-02-17T08:08:16;6.90;94.80
34644;DHT22;26931;43.498;-1.506;2023-02-17T08:11:00;7.00;94.90
34644;DHT22;26931;43.498;-1.506;2023-02-17T08:13:45;7.00;94.90
34644;DHT22;26931;43.498;-1.506;2023-02-17T08:16:11;7.10;94.90
34644;DHT22;26931;43.498;-1.506;2023-02-17T08:18:36;7.10;94.80
34644;DHT22;26931;43.498;-1.506;2023-02-17T08:21:02;7.20;94.90
34644;DHT22;26931;43.498;-1.506;2023-02-17T08:23:28;7.20;94.90
34644;DHT22;26931;43.498;-1.506;2023-02-17T08:25:57;7.30;94.70
34644;DHT22;26931;43.498;-1.506;2023-02-17T08:28:23;7.50;94.80
34644;DHT22;26931;43.498;-1.506;2023-02-17T08:30:49;7.50;94.70
34644;DHT22;26931;43.498;-1.506;2023-02-17T08:33:15;7.50;94.60
34644;DHT22;26931;43.498;-1.506;2023-02-17T08:35:46;7.60;94.60
34644;DHT22;26931;43.498;-1.506;2023-02-17T08:38:12;7.60;94.60
34644;DHT22;26931;43.498;-1.506;2023-02-17T08:40:38;7.70;94.60
34644;DHT22;26931;43.498;-1.506;2023-02-17T08:43:06;7.70;94.40
34644;DHT22;26931;43.498;-1.506;2023-02-17T08:45:31;7.90;94.50
34644;DHT22;26931;43.498;-1.506;2023-02-17T08:47:57;7.90;94.40
34644;DHT22;26931;43.498;-1.506;2023-02-17T08:50:23;8.00;94.30
34644;DHT22;26931;43.498;-1.506;2023-02-17T08:52:49;8.10;94.30
34644;DHT22;26931;43.498;-1.506;2023-02-17T08:55:15;8.20;94.30
34644;DHT22;26931;43.498;-1.506;2023-02-17T08:57:43;8.10;94.20
34644;DHT22;26931;43.498;-1.506;2023-02-17T09:00:09;8.30;94.20
34644;DHT22;26931;43.498;-1.506;2023-02-17T09:02:35;8.40;94.10
34644;DHT22;26931;43.498;-1.506;2023-02-17T09:05:02;8.50;94.00
34644;DHT22;26931;43.498;-1.506;2023-02-17T09:07:29;8.60;94.10
34644;DHT22;26931;43.498;-1.506;2023-02-17T09:09:55;8.70;94.00
34644;DHT22;26931;43.498;-1.506;2023-02-17T09:12:20;8.60;93.90
34644;DHT22;26931;43.498;-1.506;2023-02-17T09:14:46;8.80;93.90
34644;DHT22;26931;43.498;-1.506;2023-02-17T09:17:12;8.90;93.80
34644;DHT22;26931;43.498;-1.506;2023-02-17T09:19:38;9.00;93.70
34644;DHT22;26931;43.498;-1.506;2023-02-17T09:22:05;9.10;93.70
34644;DHT22;26931;43.498;-1.506;2023-02-17T09:24:31;9.20;93.70
34644;DHT22;26931;43.498;-1.506;2023-02-17T09:27:00;9.30;93.50
34644;DHT22;26931;43.498;-1.506;2023-02-17T09:29:26;9.60;93.60
34644;DHT22;26931;43.498;-1.506;2023-02-17T09:31:52;9.50;93.40
34644;DHT22;26931;43.498;-1.506;2023-02-17T09:34:18;9.60;93.40
34644;DHT22;26931;43.498;-1.506;2023-02-17T09:36:44;9.70;93.30
34644;DHT22;26931;43.498;-1.506;2023-02-17T09:39:10;9.70;93.30
34644;DHT22;26931;43.498;-1.506;2023-02-17T09:41:47;9.70;93.10
34644;DHT22;26931;43.498;-1.506;2023-02-17T09:44:18;9.90;93.20
34644;DHT22;26931;43.498;-1.506;2023-02-17T09:47:06;10.00;93.10
34644;DHT22;26931;43.498;-1.506;2023-02-17T09:49:35;10.10;93.00
34644;DHT22;26931;43.498;-1.506;2023-02-17T09:52:04;10.10;93.00
34644;DHT22;26931;43.498;-1.506;2023-02-17T09:57:14;10.30;92.80
34644;DHT22;26931;43.498;-1.506;2023-02-17T09:59:51;10.60;92.80
34644;DHT22;26931;43.498;-1.506;2023-02-17T10:02:26;10.50;92.60
34644;DHT22;26931;43.498;-1.506;2023-02-17T10:04:54;10.60;92.60
34644;DHT22;26931;43.498;-1.506;2023-02-17T10:07:23;10.80;92.50
34644;DHT22;26931;43.498;-1.506;2023-02-17T10:09:54;10.90;92.50
34644;DHT22;26931;43.498;-1.506;2023-02-17T10:12:23;11.10;92.50
34644;DHT22;26931;43.498;-1.506;2023-02-17T10:15:09;11.20;92.40
34644;DHT22;26931;43.498;-1.506;2023-02-17T10:22:36;11.50;92.30
34644;DHT22;26931;43.498;-1.506;2023-02-17T10:25:12;11.60;92.30
34644;DHT22;26931;43.498;-1.506;2023-02-17T10:27:45;11.70;92.30
34644;DHT22;26931;43.498;-1.506;2023-02-17T10:35:34;11.90;92.10
34644;DHT22;26931;43.498;-1.506;2023-02-17T10:38:14;12.00;92.00
34644;DHT22;26931;43.498;-1.506;2023-02-17T10:40:40;12.30;92.00
34644;DHT22;26931;43.498;-1.506;2023-02-17T10:43:08;12.10;91.90
34644;DHT22;26931;43.498;-1.506;2023-02-17T10:45:36;12.20;91.80
34644;DHT22;26931;43.498;-1.506;2023-02-17T10:50:51;12.40;91.60
34644;DHT22;26931;43.498;-1.506;2023-02-17T10:53:20;12.50;91.40
34644;DHT22;26931;43.498;-1.506;2023-02-17T10:58:15;12.70;91.00
34644;DHT22;26931;43.498;-1.506;2023-02-17T11:00:43;12.90;90.90
34644;DHT22;26931;43.498;-1.506;2023-02-17T11:03:17;12.80;90.80
34644;DHT22;26931;43.498;-1.506;2023-02-17T11:05:50;12.70;90.70
34644;DHT22;26931;43.498;-1.506;2023-02-17T11:08:23;12.90;90.40
34644;DHT22;26931;43.498;-1.506;2023-02-17T11:11:00;13.00;90.40
34644;DHT22;26931;43.498;-1.506;2023-02-17T11:13:30;13.10;89.80
34644;DHT22;26931;43.498;-1.506;2023-02-17T11:15:56;13.20;89.20
34644;DHT22;26931;43.498;-1.506;2023-02-17T11:18:25;13.40;88.40
34644;DHT22;26931;43.498;-1.506;2023-02-17T11:20:58;13.50;87.50
34644;DHT22;26931;43.498;-1.506;2023-02-17T11:23:24;13.50;87.10
34644;DHT22;26931;43.498;-1.506;2023-02-17T11:25:54;13.50;86.70
34644;DHT22;26931;43.498;-1.506;2023-02-17T11:28:22;13.70;86.00
34644;DHT22;26931;43.498;-1.506;2023-02-17T11:30:50;13.80;85.00
34644;DHT22;26931;43.498;-1.506;2023-02-17T11:33:20;13.90;84.30
34644;DHT22;26931;43.498;-1.506;2023-02-17T11:35:48;14.10;84.00
34644;DHT22;26931;43.498;-1.506;2023-02-17T11:38:15;14.00;83.30
34644;DHT22;26931;43.498;-1.506;2023-02-17T11:40:50;14.10;83.60
34644;DHT22;26931;43.498;-1.506;2023-02-17T11:43:17;14.10;82.40
34644;DHT22;26931;43.498;-1.506;2023-02-17T11:51:06;14.40;81.60
34644;DHT22;26931;43.498;-1.506;2023-02-17T11:53:46;14.30;81.50
34644;DHT22;26931;43.498;-1.506;2023-02-17T11:56:16;14.40;81.20
34644;DHT22;26931;43.498;-1.506;2023-02-17T11:58:50;14.50;80.50
34644;DHT22;26931;43.498;-1.506;2023-02-17T12:01:22;14.50;80.00
34644;DHT22;26931;43.498;-1.506;2023-02-17T12:03:56;14.40;80.00
34644;DHT22;26931;43.498;-1.506;2023-02-17T12:11:45;14.70;78.90
34644;DHT22;26931;43.498;-1.506;2023-02-17T12:17:10;14.70;78.20
34644;DHT22;26931;43.498;-1.506;2023-02-17T12:19:48;14.80;78.10
34644;DHT22;26931;43.498;-1.506;2023-02-17T12:22:19;14.90;78.00
34644;DHT22;26931;43.498;-1.506;2023-02-17T12:27:32;15.00;77.90
34644;DHT22;26931;43.498;-1.506;2023-02-17T12:30:09;14.90;77.60
34644;DHT22;26931;43.498;-1.506;2023-02-17T12:37:53;15.20;77.90
34644;DHT22;26931;43.498;-1.506;2023-02-17T12:40:42;15.20;77.90
34644;DHT22;26931;43.498;-1.506;2023-02-17T12:43:16;15.30;78.00
34644;DHT22;26931;43.498;-1.506;2023-02-17T12:45:44;15.20;77.80
34644;DHT22;26931;43.498;-1.506;2023-02-17T12:48:21;15.30;78.10
34644;DHT22;26931;43.498;-1.506;2023-02-17T12:50:50;15.30;78.00
34644;DHT22;26931;43.498;-1.506;2023-02-17T12:53:21;15.40;78.00
34644;DHT22;26931;43.498;-1.506;2023-02-17T12:55:58;15.50;78.10
34644;DHT22;26931;43.498;-1.506;2023-02-17T12:58:27;15.50;77.90
34644;DHT22;26931;43.498;-1.506;2023-02-17T13:01:03;15.60;77.70
34644;DHT22;26931;43.498;-1.506;2023-02-17T13:03:33;15.60;77.70
34644;DHT22;26931;43.498;-1.506;2023-02-17T13:06:15;15.60;77.40
34644;DHT22;26931;43.498;-1.506;2023-02-17T13:08:57;15.70;77.20
34644;DHT22;26931;43.498;-1.506;2023-02-17T13:11:31;15.70;77.10
34644;DHT22;26931;43.498;-1.506;2023-02-17T13:14:08;15.80;76.80
34644;DHT22;26931;43.498;-1.506;2023-02-17T13:16:41;15.90;76.10
34644;DHT22;26931;43.498;-1.506;2023-02-17T13:19:07;16.00;75.90
34644;DHT22;26931;43.498;-1.506;2023-02-17T13:21:32;16.00;75.90
34644;DHT22;26931;43.498;-1.506;2023-02-17T13:24:15;16.10;75.70
34644;DHT22;26931;43.498;-1.506;2023-02-17T13:26:54;16.20;76.00
34644;DHT22;26931;43.498;-1.506;2023-02-17T13:29:31;16.20;76.40
34644;DHT22;26931;43.498;-1.506;2023-02-17T13:31:59;16.20;76.70
34644;DHT22;26931;43.498;-1.506;2023-02-17T13:34:34;16.30;76.40
34644;DHT22;26931;43.498;-1.506;2023-02-17T13:37:01;16.40;76.20
34644;DHT22;26931;43.498;-1.506;2023-02-17T13:41:53;16.30;76.90
34644;DHT22;26931;43.498;-1.506;2023-02-17T13:46:57;16.20;77.80
34644;DHT22;26931;43.498;-1.506;2023-02-17T13:49:24;16.10;78.30
34644;DHT22;26931;43.498;-1.506;2023-02-17T13:51:52;16.00;78.80
34644;DHT22;26931;43.498;-1.506;2023-02-17T13:54:20;16.00;79.40
34644;DHT22;26931;43.498;-1.506;2023-02-17T13:56:49;16.00;80.00
34644;DHT22;26931;43.498;-1.506;2023-02-17T13:59:16;16.10;80.30
34644;DHT22;26931;43.498;-1.506;2023-02-17T14:01:43;16.00;80.40
34644;DHT22;26931;43.498;-1.506;2023-02-17T14:04:20;16.10;80.60
34644;DHT22;26931;43.498;-1.506;2023-02-17T14:06:46;16.00;80.80
34644;DHT22;26931;43.498;-1.506;2023-02-17T14:11:46;15.90;81.20
34644;DHT22;26931;43.498;-1.506;2023-02-17T14:14:12;15.90;81.40
34644;DHT22;26931;43.498;-1.506;2023-02-17T14:16:39;16.00;81.50
34644;DHT22;26931;43.498;-1.506;2023-02-17T14:19:10;16.00;81.50
34644;DHT22;26931;43.498;-1.506;2023-02-17T14:21:40;16.00;81.30
34644;DHT22;26931;43.498;-1.506;2023-02-17T14:24:06;16.00;81.10
34644;DHT22;26931;43.498;-1.506;2023-02-17T14:26:37;15.80;81.00
34644;DHT22;26931;43.498;-1.506;2023-02-17T14:29:04;15.90;81.20
34644;DHT22;26931;43.498;-1.506;2023-02-17T14:31:40;15.80;81.20
34644;DHT22;26931;43.498;-1.506;2023-02-17T14:34:06;15.80;81.30
34644;DHT22;26931;43.498;-1.506;2023-02-17T14:36:34;15.70;81.20
34644;DHT22;26931;43.498;-1.506;2023-02-17T14:39:01;15.70;81.40
34644;DHT22;26931;43.498;-1.506;2023-02-17T14:41:28;15.70;81.50
34644;DHT22;26931;43.498;-1.506;2023-02-17T14:43:54;15.70;81.50
34644;DHT22;26931;43.498;-1.506;2023-02-17T14:46:20;15.80;81.70
34644;DHT22;26931;43.498;-1.506;2023-02-17T14:48:46;15.70;81.70
34644;DHT22;26931;43.498;-1.506;2023-02-17T14:51:12;15.80;82.10
34644;DHT22;26931;43.498;-1.506;2023-02-17T14:53:38;15.90;82.20
34644;DHT22;26931;43.498;-1.506;2023-02-17T14:58:30;15.80;82.40
34644;DHT22;26931;43.498;-1.506;2023-02-17T15:00:56;15.80;82.50
34644;DHT22;26931;43.498;-1.506;2023-02-17T15:03:22;15.90;82.60
34644;DHT22;26931;43.498;-1.506;2023-02-17T15:05:48;15.80;82.70
34644;DHT22;26931;43.498;-1.506;2023-02-17T15:08:15;15.90;82.90
34644;DHT22;26931;43.498;-1.506;2023-02-17T15:10:41;15.80;82.90
34644;DHT22;26931;43.498;-1.506;2023-02-17T15:13:11;15.80;83.00
34644;DHT22;26931;43.498;-1.506;2023-02-17T15:15:37;15.80;83.10
34644;DHT22;26931;43.498;-1.506;2023-02-17T15:18:04;15.80;83.10
34644;DHT22;26931;43.498;-1.506;2023-02-17T15:20:30;15.80;83.20
34644;DHT22;26931;43.498;-1.506;2023-02-17T15:22:56;15.80;83.30
34644;DHT22;26931;43.498;-1.506;2023-02-17T15:25:22;16.00;83.60
34644;DHT22;26931;43.498;-1.506;2023-02-17T15:27:48;15.90;83.30
34644;DHT22;26931;43.498;-1.506;2023-02-17T15:30:17;16.00;82.90
34644;DHT22;26931;43.498;-1.506;2023-02-17T15:32:43;15.90;82.70
34644;DHT22;26931;43.498;-1.506;2023-02-17T15:37:38;15.80;82.70
34644;DHT22;26931;43.498;-1.506;2023-02-17T15:40:04;15.80;82.50
34644;DHT22;26931;43.498;-1.506;2023-02-17T15:42:30;15.80;82.60
34644;DHT22;26931;43.498;-1.506;2023-02-17T15:44:56;15.80;82.30
34644;DHT22;26931;43.498;-1.506;2023-02-17T15:47:22;15.90;82.20
34644;DHT22;26931;43.498;-1.506;2023-02-17T15:49:48;16.10;82.30
34644;DHT22;26931;43.498;-1.506;2023-02-17T15:52:14;15.90;82.10
34644;DHT22;26931;43.498;-1.506;2023-02-17T15:54:40;15.90;81.90
34644;DHT22;26931;43.498;-1.506;2023-02-17T15:57:07;16.00;82.00
34644;DHT22;26931;43.498;-1.506;2023-02-17T15:59:33;16.00;82.00
34644;DHT22;26931;43.498;-1.506;2023-02-17T16:01:59;16.00;82.00
34644;DHT22;26931;43.498;-1.506;2023-02-17T16:04:26;16.00;82.00
34644;DHT22;26931;43.498;-1.506;2023-02-17T16:06:53;15.90;82.30
34644;DHT22;26931;43.498;-1.506;2023-02-17T16:09:19;15.90;82.20
34644;DHT22;26931;43.498;-1.506;2023-02-17T16:11:49;15.70;82.00
34644;DHT22;26931;43.498;-1.506;2023-02-17T16:14:23;15.90;82.10
34644;DHT22;26931;43.498;-1.506;2023-02-17T16:16:49;15.70;81.90
34644;DHT22;26931;43.498;-1.506;2023-02-17T16:19:15;15.60;81.80
34644;DHT22;26931;43.498;-1.506;2023-02-17T16:21:41;15.80;82.00
34644;DHT22;26931;43.498;-1.506;2023-02-17T16:24:07;15.60;81.90
34644;DHT22;26931;43.498;-1.506;2023-02-17T16:26:33;15.60;81.90
34644;DHT22;26931;43.498;-1.506;2023-02-17T16:29:00;15.50;82.00
34644;DHT22;26931;43.498;-1.506;2023-02-17T16:31:26;15.50;82.10
34644;DHT22;26931;43.498;-1.506;2023-02-17T16:33:52;15.50;82.20
34644;DHT22;26931;43.498;-1.506;2023-02-17T16:36:23;15.40;82.20
34644;DHT22;26931;43.498;-1.506;2023-02-17T16:38:49;15.40;82.60
34644;DHT22;26931;43.498;-1.506;2023-02-17T16:41:16;15.30;82.80
34644;DHT22;26931;43.498;-1.506;2023-02-17T16:43:42;15.20;83.10
34644;DHT22;26931;43.498;-1.506;2023-02-17T16:46:16;15.20;83.40